This is the latest recevied weather packets stored in our database for station/object HS9UAC-10. If no packets are shown the sender has not sent any weather packets the latest 10 day(s).
| Time | Temp. | Humidity | Pressure | Rain* | Wind** | Luminosity | Snow |
|---|---|---|---|---|---|---|---|
| 1777650592 | 35° C | 75% | 1008 hPa | - | - | 0 W/m² | - |
| 1777649668 | 34.44° C | 76% | 1008 hPa | - | - | 0 W/m² | - |
| 1777648743 | 35° C | 74% | 1008 hPa | - | - | 0 W/m² | - |
| 1777647818 | 35° C | 75% | 1009 hPa | - | - | 0 W/m² | - |
| 1777646894 | 35.56° C | 75% | 1008 hPa | - | - | 0 W/m² | - |
| 1777645969 | 34.44° C | 80% | 1008 hPa | - | - | 0 W/m² | - |
| 1777645045 | 34.44° C | 80% | 1008 hPa | - | - | 0 W/m² | - |
| 1777644120 | 34.44° C | 79% | 1008 hPa | - | - | 0 W/m² | - |
| 1777643195 | 34.44° C | 77% | 1008 hPa | - | - | 0 W/m² | - |
| 1777642271 | 33.89° C | 82% | 1008 hPa | - | - | 0 W/m² | - |
| 1777641346 | 33.89° C | 77% | 1007 hPa | - | - | 0 W/m² | - |
| 1777640421 | 35° C | 72% | 1007 hPa | - | - | 0 W/m² | - |
| 1777639496 | 35.56° C | 68% | 1006 hPa | - | - | 0 W/m² | - |
| 1777638572 | 34.44° C | 72% | 1006 hPa | - | - | 0 W/m² | - |
| 1777637647 | 35.56° C | 68% | 1006 hPa | - | - | 0 W/m² | - |
| 1777636722 | 36.67° C | 64% | 1006 hPa | - | - | 0 W/m² | - |
| 1777635798 | 35.56° C | 67% | 1006 hPa | - | - | 0 W/m² | - |
| 1777634873 | 36.11° C | 65% | 1006 hPa | - | - | 0 W/m² | - |
| 1777633949 | 35.56° C | 68% | 1006 hPa | - | - | 0 W/m² | - |
| 1777633024 | 36.67° C | 62% | 1005 hPa | - | - | 0 W/m² | - |
| 1777632099 | 35.56° C | 69% | 1005 hPa | - | - | 0 W/m² | - |
| 1777631175 | 35.56° C | 65% | 1005 hPa | - | - | 0 W/m² | - |
| 1777630250 | 36.11° C | 66% | 1006 hPa | - | - | 0 W/m² | - |
| 1777629326 | 36.11° C | 66% | 1006 hPa | - | - | 0 W/m² | - |
| 1777628401 | 36.11° C | 65% | 1005 hPa | - | - | 0 W/m² | - |
* Rain since midnight (hover to see other rain measurements)
** Current wind speed in m/s (hover to see current wind gust speed)